BHK weather

Bahía de Kino Airport
Bahia de Kino, Sonora, Mexico

Public forecast

Using degrees Celsius for public forecast. Weather courtesy of forecast.io.

Closest aviation weather report (METAR) to Bahía de Kino Airport

Closest report is General Ignacio P. Garcia International Airport, 50.8 nm (94.1 km) ENE. Retrieved 2020/03/29 21:40 UTC (30 minutes ago):

MMHO 292140Z 28005KT 10SM BKN120 BKN200 29/M06 A2995 RMK 8/038 HZY

Closest aviation forecast (TAF) to Bahía de Kino Airport

Closest forecast is General Ignacio P. Garcia International Airport, 50.8 nm (94.1 km) ENE. Retrieved 2020/03/29 18:00 UTC (4 hours ago):

TAF MMHO 291657Z 2918/3018 24010KT P6SM SCT120 BKN260 BECMG 3001/3002 00000KT FM301500 32010KT P6SM OVC200